Time;durP1;ratioP1;P1;durP2;ratioP2;P2;SDS_P1;SDS_P2;PMS_P1;PMS_P2;Temp;Humidity;BMP_temperature;BMP_pressure;BME280_temperature;BME280_humidity;BME280_pressure;Samples;Min_cycle;Max_cycle;Signal;HPM_P1;HPM_P2
2022/04/06 00:00:52;;;;;;;2.35;2.25;;;;;;;8.32;100.00;97172.78;10344484;28;20046;-69
2022/04/06 00:05:55;;;;;;;3.05;2.85;;;;;;;8.36;100.00;97181.31;10346510;28;20172;-67
2022/04/06 00:11:00;;;;;;;3.30;3.10;;;;;;;8.41;100.00;97168.22;10346563;28;20049;-67
2022/04/06 00:16:03;;;;;;;2.88;2.67;;;;;;;8.47;100.00;97172.03;10348175;28;20046;-66
2022/04/06 00:21:07;;;;;;;2.92;2.72;;;;;;;8.53;100.00;97149.84;10345196;28;20050;-67
2022/04/06 00:26:11;;;;;;;3.00;2.80;;;;;;;8.58;100.00;97144.78;10360511;28;20434;-67
2022/04/06 00:31:14;;;;;;;3.00;2.80;;;;;;;8.55;100.00;97152.38;10360225;28;20050;-68
2022/04/06 00:36:19;;;;;;;3.38;3.08;;;;;;;8.58;100.00;97142.13;10346602;28;20053;-68
2022/04/06 00:41:23;;;;;;;3.50;3.20;;;;;;;8.60;100.00;97144.59;10345602;28;20533;-70
2022/04/06 00:46:26;;;;;;;3.00;2.80;;;;;;;8.61;100.00;97140.91;10451428;23;20080;-62
2022/04/06 00:51:29;;;;;;;3.38;3.03;;;;;;;8.60;100.00;97150.81;10425819;28;20076;-58
2022/04/06 00:56:34;;;;;;;3.28;2.97;;;;;;;8.59;100.00;97148.31;10426710;28;20115;-61
2022/04/06 01:01:37;;;;;;;3.17;2.97;;;;;;;8.62;100.00;97143.44;10424994;28;20051;-61
2022/04/06 01:06:41;;;;;;;2.60;2.40;;;;;;;8.66;100.00;97137.69;10423810;28;20055;-60
2022/04/06 01:11:48;;;;;;;2.58;2.38;;;;;;;8.67;100.00;97129.47;10422777;28;20086;-59
2022/04/06 01:16:59;;;;;;;2.58;2.38;;;;;;;8.71;100.00;97132.63;10424873;28;20049;-60
2022/04/06 01:22:07;;;;;;;2.60;2.40;;;;;;;8.71;100.00;97125.38;10424046;28;20049;-59
2022/04/06 01:27:11;;;;;;;2.60;2.40;;;;;;;8.69;100.00;97135.50;10424552;28;20103;-57
2022/04/06 01:32:17;;;;;;;2.50;2.28;;;;;;;8.69;100.00;97140.00;10425754;28;20049;-61
2022/04/06 01:37:23;;;;;;;2.50;2.30;;;;;;;8.66;100.00;97135.00;10423724;28;20079;-59
2022/04/06 01:42:26;;;;;;;2.47;2.28;;;;;;;8.69;100.00;97138.19;10422252;28;20512;-60
2022/04/06 01:47:29;;;;;;;2.50;2.30;;;;;;;8.67;100.00;97140.19;10402014;28;20045;-58
2022/04/06 01:52:33;;;;;;;2.60;2.40;;;;;;;8.66;100.00;97137.69;10422818;28;20130;-60
2022/04/06 01:57:37;;;;;;;2.50;2.30;;;;;;;8.66;100.00;97124.25;10423919;28;20123;-60
2022/04/06 02:02:41;;;;;;;2.47;2.30;;;;;;;8.64;100.00;97130.63;10419117;28;20049;-59
2022/04/06 02:07:50;;;;;;;2.83;2.47;;;;;;;8.60;100.00;97131.19;10407202;28;20049;-61
2022/04/06 02:12:56;;;;;;;2.60;2.40;;;;;;;8.54;100.00;97130.06;10424405;28;21131;-58
2022/04/06 02:18:01;;;;;;;2.67;2.47;;;;;;;8.48;100.00;97142.34;10420993;28;20045;-56
2022/04/06 02:23:06;;;;;;;2.90;2.70;;;;;;;8.41;100.00;97133.31;10421995;28;20072;-59
2022/04/06 02:28:09;;;;;;;2.75;2.55;;;;;;;8.41;100.00;97140.56;10421192;28;20481;-60
2022/04/06 02:33:12;;;;;;;3.13;2.38;;;;;;;8.43;100.00;97139.34;10424009;28;20060;-59
2022/04/06 02:38:16;;;;;;;2.63;2.30;;;;;;;8.46;100.00;97138.16;10431881;28;20050;-59
2022/04/06 02:43:19;;;;;;;2.90;2.70;;;;;;;8.43;100.00;97131.31;10430455;28;20478;-61
2022/04/06 02:48:23;;;;;;;4.18;2.70;;;;;;;8.43;100.00;97117.03;10430926;28;20053;-61
2022/04/06 02:53:27;;;;;;;2.60;2.40;;;;;;;8.46;100.00;97117.53;10433719;28;21283;-62
2022/04/06 02:58:30;;;;;;;2.65;2.45;;;;;;;8.52;100.00;97126.75;10435365;28;20211;-60
2022/04/06 03:03:34;;;;;;;2.50;2.30;;;;;;;8.54;100.00;97116.63;10435189;28;20056;-60
2022/04/06 03:08:38;;;;;;;2.45;2.30;;;;;;;8.53;100.00;97119.50;10434065;28;20175;-62
2022/04/06 03:13:41;;;;;;;2.38;2.17;;;;;;;8.52;100.00;97110.63;10432700;28;20045;-60
2022/04/06 03:18:45;;;;;;;2.55;2.28;;;;;;;8.56;100.00;97121.84;10434057;28;20117;-60
2022/04/06 03:23:49;;;;;;;1.80;1.70;;;;;;;8.59;100.00;97114.25;10431602;28;20132;-61
2022/04/06 03:28:53;;;;;;;2.60;2.03;;;;;;;8.59;100.00;97111.56;10416154;28;20639;-61
2022/04/06 03:33:56;;;;;;;2.30;2.10;;;;;;;8.58;100.00;97112.59;10434554;28;20071;-62
2022/04/06 03:39:00;;;;;;;1.90;1.80;;;;;;;8.60;100.00;97113.25;10435259;28;20075;-61
2022/04/06 03:44:04;;;;;;;2.30;2.10;;;;;;;8.58;100.00;97109.91;10437865;28;20045;-62
2022/04/06 03:49:08;;;;;;;2.42;2.20;;;;;;;8.63;100.00;97107.53;10433836;28;20045;-61
2022/04/06 03:54:13;;;;;;;1.88;1.77;;;;;;;8.63;100.00;97107.53;10445487;28;20049;-62
2022/04/06 03:59:16;;;;;;;1.90;1.80;;;;;;;8.62;100.00;97103.16;10471289;28;20045;-59
2022/04/06 04:04:19;;;;;;;1.92;1.83;;;;;;;8.61;100.00;97103.31;10471376;28;20052;-58
2022/04/06 04:09:24;;;;;;;2.17;1.90;;;;;;;8.57;100.00;97113.59;10453331;28;20051;-61
2022/04/06 04:14:27;;;;;;;2.40;1.90;;;;;;;8.55;100.00;97118.31;10471563;28;20056;-61
2022/04/06 04:19:34;;;;;;;2.33;2.13;;;;;;;8.55;100.00;97121.00;10471594;28;20037;-61
2022/04/06 04:24:39;;;;;;;2.30;2.10;;;;;;;8.55;100.00;97117.50;10471616;28;20052;-61
2022/04/06 04:29:46;;;;;;;2.38;2.17;;;;;;;8.54;100.00;97123.88;10469857;28;20496;-58
2022/04/06 04:34:49;;;;;;;3.05;2.20;;;;;;;8.50;100.00;97123.41;10469138;28;20837;-60
2022/04/06 04:39:53;;;;;;;2.67;2.38;;;;;;;8.44;100.00;97124.91;10468777;28;20047;-59
2022/04/06 04:44:56;;;;;;;2.50;2.28;;;;;;;8.43;100.00;97130.44;10469470;28;20118;-60
2022/04/06 04:50:06;;;;;;;2.85;2.22;;;;;;;8.38;100.00;97119.44;10470840;28;20043;-60
2022/04/06 04:55:10;;;;;;;2.92;2.65;;;;;;;8.32;100.00;97129.03;10469597;28;20127;-60
2022/04/06 05:00:15;;;;;;;2.78;2.55;;;;;;;8.21;100.00;97129.44;10469307;28;20094;-62
2022/04/06 05:05:18;;;;;;;3.00;2.45;;;;;;;8.08;100.00;97127.34;10469557;28;20060;-60
2022/04/06 05:10:22;;;;;;;3.05;2.60;;;;;;;8.08;100.00;97121.97;10467745;28;20617;-61
2022/04/06 05:15:25;;;;;;;3.60;2.30;;;;;;;8.18;100.00;97123.44;10468831;28;20187;-62
2022/04/06 05:20:28;;;;;;;2.60;2.40;;;;;;;8.26;100.00;97122.53;10469412;28;20114;-60
2022/04/06 05:25:33;;;;;;;2.20;2.00;;;;;;;8.30;100.00;97126.50;10468700;28;20118;-60
2022/04/06 05:30:38;;;;;;;2.70;2.20;;;;;;;8.38;100.00;97125.63;10451429;28;20052;-58
2022/04/06 05:35:41;;;;;;;2.10;1.90;;;;;;;8.47;100.00;97124.56;10468676;28;20635;-56
2022/04/06 05:40:46;;;;;;;2.50;1.92;;;;;;;8.59;100.00;97114.25;10467487;28;21293;-60
2022/04/06 05:45:48;;;;;;;2.07;1.80;;;;;;;8.64;100.00;97119.06;10451800;28;20064;-59
2022/04/06 05:50:52;;;;;;;2.72;1.83;;;;;;;8.67;100.00;97123.25;10454518;28;20053;-60
2022/04/06 05:55:56;;;;;;;2.20;1.90;;;;;;;8.67;100.00;97128.63;10470838;28;20123;-61
2022/04/06 06:00:59;;;;;;;2.15;1.80;;;;;;;8.68;100.00;97124.91;10471189;28;21547;-62
2022/04/06 06:06:03;;;;;;;3.47;2.10;;;;;;;8.71;100.00;97119.19;10468964;28;20056;-59
2022/04/06 06:11:08;;;;;;;2.55;1.67;;;;;;;8.74;100.00;97119.66;10473712;28;20132;-60
2022/04/06 06:16:11;;;;;;;2.97;1.80;;;;;;;8.81;100.00;97111.72;10474312;28;20815;-59
2022/04/06 06:21:14;;;;;;;2.30;1.60;;;;;;;8.90;100.00;97107.09;10458029;28;20052;-60
2022/04/06 06:26:18;;;;;;;2.15;1.77;;;;;;;8.93;100.00;97104.06;10474242;28;20615;-61
2022/04/06 06:31:21;;;;;;;2.55;1.65;;;;;;;9.02;100.00;97112.84;10474534;28;20056;-61
2022/04/06 06:36:24;;;;;;;2.50;1.80;;;;;;;9.10;100.00;97099.34;10473842;28;20040;-61
2022/04/06 06:41:29;;;;;;;2.50;1.77;;;;;;;9.16;100.00;97106.66;10473780;28;20133;-60
2022/04/06 06:46:32;;;;;;;2.47;1.90;;;;;;;9.18;100.00;97098.41;10466182;23;20059;-67
2022/04/06 06:51:35;;;;;;;2.53;1.90;;;;;;;9.20;100.00;97099.91;10410063;28;20045;-67
2022/04/06 06:56:39;;;;;;;3.72;1.90;;;;;;;9.19;100.00;97111.66;10429479;28;20041;-68
2022/04/06 07:01:43;;;;;;;2.42;1.90;;;;;;;9.19;100.00;97103.59;10432030;28;20041;-67
2022/04/06 07:06:49;;;;;;;2.20;1.80;;;;;;;9.25;100.00;97108.22;10427164;28;20577;-68
2022/04/06 07:11:55;;;;;;;2.42;1.73;;;;;;;9.24;100.00;97105.72;10433821;28;20041;-67
2022/04/06 07:16:58;;;;;;;2.72;1.90;;;;;;;9.23;100.00;97098.69;10411629;28;20072;-68
2022/04/06 07:22:02;;;;;;;1.70;1.40;;;;;;;9.28;100.00;97088.22;10431796;28;20508;-69
2022/04/06 07:27:06;;;;;;;1.95;1.40;;;;;;;9.34;100.00;97097.41;10430473;28;20041;-67
2022/04/06 07:32:10;;;;;;;1.95;1.50;;;;;;;9.44;100.00;97086.34;10434669;28;20471;-68
2022/04/06 07:37:13;;;;;;;2.78;1.63;;;;;;;9.54;100.00;97076.13;10411542;28;20045;-68
2022/04/06 07:42:18;;;;;;;2.47;1.60;;;;;;;9.64;100.00;97070.47;10423660;28;20057;-65
2022/04/06 07:47:21;;;;;;;1.80;1.40;;;;;;;9.76;100.00;97077.03;10429701;28;20123;-68
2022/04/06 07:52:24;;;;;;;2.42;1.40;;;;;;;9.86;100.00;97061.41;10435231;28;20518;-68
2022/04/06 07:57:29;;;;;;;2.05;1.33;;;;;;;10.04;100.00;97070.91;10435563;28;20428;-66
2022/04/06 08:02:32;;;;;;;2.15;1.40;;;;;;;10.11;100.00;97063.72;10432930;28;20540;-68
2022/04/06 08:07:39;;;;;;;3.58;1.50;;;;;;;10.22;100.00;97072.31;10427251;28;20119;-68
2022/04/06 08:12:45;;;;;;;1.60;1.10;;;;;;;10.29;100.00;97068.66;10435225;28;20057;-68
2022/04/06 08:17:49;;;;;;;1.83;1.15;;;;;;;10.43;100.00;97079.59;10477274;28;20089;-69
2022/04/06 08:22:52;;;;;;;2.35;1.23;;;;;;;10.52;100.00;97073.03;10459474;28;20046;-70
2022/04/06 08:27:56;;;;;;;4.13;1.40;;;;;;;10.40;100.00;97074.59;10479776;28;20107;-70
2022/04/06 08:32:59;;;;;;;2.13;1.38;;;;;;;10.31;100.00;97073.84;10477811;28;20075;-70
2022/04/06 08:38:03;;;;;;;2.28;1.15;;;;;;;10.43;100.00;97069.66;10478972;28;20044;-68
2022/04/06 08:43:08;;;;;;;1.80;1.02;;;;;;;10.47;100.00;97070.94;10464053;28;20048;-67
2022/04/06 08:48:13;;;;;;;3.38;1.33;;;;;;;10.45;100.00;97059.50;10410619;28;20130;-68
2022/04/06 08:53:20;;;;;;;2.67;1.00;;;;;;;10.64;100.00;97058.00;10409386;28;20052;-67
2022/04/06 08:58:25;;;;;;;2.28;1.20;;;;;;;10.57;100.00;97067.91;10407756;28;20056;-66
2022/04/06 09:03:28;;;;;;;1.88;1.10;;;;;;;10.98;100.00;97055.56;10400469;28;20163;-66
2022/04/06 09:08:36;;;;;;;2.22;1.10;;;;;;;11.08;100.00;97053.34;10422478;28;20575;-65
2022/04/06 09:13:42;;;;;;;1.67;1.00;;;;;;;10.82;100.00;97064.75;10426202;28;20320;-66
2022/04/06 09:18:48;;;;;;;2.33;1.20;;;;;;;10.63;100.00;97064.44;10408302;28;20993;-65
2022/04/06 09:23:51;;;;;;;2.13;1.10;;;;;;;10.67;100.00;97062.16;10424624;28;20445;-65
2022/04/06 09:28:55;;;;;;;1.67;0.93;;;;;;;10.49;100.00;97089.56;10406436;28;20554;-66
2022/04/06 09:33:59;;;;;;;2.25;1.10;;;;;;;10.54;100.00;97053.97;10398940;28;20083;-66
2022/04/06 09:39:03;;;;;;;3.42;1.20;;;;;;;10.64;100.00;97057.19;10426447;28;20040;-66
2022/04/06 09:49:29;;;;;;;2.78;1.00;;;;;;;10.87;100.00;97032.69;10429839;28;20051;-66
2022/04/06 09:54:36;;;;;;;1.92;0.93;;;;;;;11.11;100.00;97049.41;10428999;28;20043;-67
2022/04/06 09:59:42;;;;;;;2.83;1.10;;;;;;;10.78;100.00;97034.69;10415973;28;20056;-66
2022/04/06 10:04:50;;;;;;;3.97;0.90;;;;;;;10.75;100.00;97029.72;10432781;28;20052;-63
2022/04/06 10:09:53;;;;;;;4.03;1.00;;;;;;;10.60;100.00;97037.88;10432078;28;20045;-62
2022/04/06 10:15:01;;;;;;;2.65;1.00;;;;;;;10.64;100.00;97023.00;10432654;28;20049;-62
2022/04/06 10:20:12;;;;;;;2.05;0.90;;;;;;;10.52;100.00;97010.28;10427593;28;20047;-63
2022/04/06 10:25:22;;;;;;;2.92;1.08;;;;;;;10.58;100.00;97014.88;10430657;28;20134;-64
2022/04/06 10:30:29;;;;;;;2.92;1.00;;;;;;;10.82;100.00;97004.69;10429296;28;20519;-64
2022/04/06 10:35:34;;;;;;;2.22;1.10;;;;;;;10.74;100.00;97000.28;10411485;28;20182;-65
2022/04/06 10:40:57;;;;;;;2.47;1.05;;;;;;;10.94;100.00;96986.94;10411177;28;20550;-65
2022/04/06 10:46:09;;;;;;;2.30;0.90;;;;;;;11.00;100.00;96977.22;10426070;28;20731;-64
2022/04/06 10:51:27;;;;;;;3.20;1.40;;;;;;;11.38;100.00;96969.50;10428188;28;20122;-65
2022/04/06 10:56:52;;;;;;;1.88;1.02;;;;;;;11.26;100.00;96968.41;10427894;28;20183;-66
2022/04/06 11:02:19;;;;;;;2.72;1.20;;;;;;;11.28;100.00;96958.25;10428908;28;20792;-67
2022/04/06 11:13:06;;;;;;;;;;;;;;;11.78;100.00;96951.75;10433153;28;20563;-64
2022/04/06 11:18:47;;;;;;;2.90;1.30;;;;;;;11.76;100.00;96951.13;10430744;28;20101;-64
2022/04/06 11:23:52;;;;;;;3.20;1.20;;;;;;;11.66;100.00;96944.25;10432740;28;20075;-64
2022/04/06 11:28:59;;;;;;;3.15;1.35;;;;;;;11.72;100.00;96938.03;10429503;28;21100;-64
2022/04/06 11:34:04;;;;;;;2.92;1.13;;;;;;;11.90;100.00;96922.28;10401882;28;20052;-64
2022/04/06 11:39:07;;;;;;;13.35;1.50;;;;;;;11.94;100.00;96928.94;10417407;28;20741;-65
2022/04/06 11:44:18;;;;;;;5.55;1.50;;;;;;;12.32;100.00;96925.63;10435519;28;20485;-64
2022/04/06 11:49:24;;;;;;;2.22;1.10;;;;;;;12.54;100.00;96926.22;10417381;28;20057;-65
2022/04/06 11:54:28;;;;;;;3.72;1.15;;;;;;;12.66;100.00;96918.31;10435859;28;20132;-64
2022/04/06 11:59:32;;;;;;;2.22;1.10;;;;;;;12.53;100.00;96905.63;10435002;28;20083;-64
2022/04/06 12:04:36;;;;;;;2.20;1.33;;;;;;;12.73;100.00;96927.22;10406227;28;20087;-65
2022/04/06 12:09:39;;;;;;;2.53;1.20;;;;;;;12.54;100.00;96899.19;10442163;28;20065;-65
2022/04/06 12:14:43;;;;;;;3.58;1.33;;;;;;;12.69;100.00;96909.78;10442518;28;20051;-65
2022/04/06 12:19:47;;;;;;;3.00;1.30;;;;;;;12.86;100.00;96903.88;10442048;28;20358;-64
2022/04/06 12:24:51;;;;;;;3.13;1.30;;;;;;;12.63;100.00;96887.16;10439889;28;20084;-65
2022/04/06 12:30:08;;;;;;;3.33;1.40;;;;;;;12.69;100.00;96890.88;10435093;28;20041;-63
2022/04/06 12:35:21;;;;;;;3.65;1.40;;;;;;;12.88;100.00;96886.41;10427953;28;20489;-63
2022/04/06 12:40:24;;;;;;;2.72;1.23;;;;;;;12.82;100.00;96875.66;10428359;28;20044;-60
2022/04/06 12:45:28;;;;;;;4.15;1.40;;;;;;;12.70;100.00;96873.59;10445345;22;20182;-60
2022/04/06 12:50:37;;;;;;;3.25;1.27;;;;;;;12.92;100.00;96874.13;10462530;28;20170;-55
2022/04/06 12:55:41;;;;;;;3.45;1.40;;;;;;;13.07;100.00;96857.63;10465476;28;20048;-55
2022/04/06 13:00:45;;;;;;;2.17;1.20;;;;;;;13.06;96.60;96855.97;10455608;28;20048;-57
2022/04/06 13:05:50;;;;;;;2.00;1.20;;;;;;;13.10;100.00;96873.44;10441047;28;20041;-56
2022/04/06 13:10:53;;;;;;;2.20;1.13;;;;;;;13.10;100.00;96883.44;10454991;28;20052;-57
2022/04/06 13:15:56;;;;;;;2.40;1.35;;;;;;;13.33;100.00;96880.16;10442459;28;20076;-56
2022/04/06 13:21:00;;;;;;;2.33;1.10;;;;;;;13.31;100.00;96862.50;10456018;28;20044;-57
2022/04/06 13:26:03;;;;;;;3.80;1.40;;;;;;;13.41;100.00;96857.47;10441730;28;20058;-59
2022/04/06 13:31:06;;;;;;;2.50;1.48;;;;;;;13.51;100.00;96851.59;10454753;28;20239;-56
2022/04/06 13:36:11;;;;;;;3.30;1.20;;;;;;;13.44;96.23;96834.56;10455516;28;20127;-58
2022/04/06 13:41:14;;;;;;;4.30;1.30;;;;;;;13.55;93.43;96840.13;10456256;28;20051;-54
2022/04/06 13:46:18;;;;;;;2.45;1.27;;;;;;;13.58;95.73;96846.16;10435416;28;20134;-58
2022/04/06 13:51:23;;;;;;;2.55;1.33;;;;;;;13.75;95.58;96812.06;10455006;28;20056;-60
2022/04/06 13:56:27;;;;;;;2.17;1.10;;;;;;;14.05;93.58;96811.38;10454345;28;20455;-61
2022/04/06 14:01:32;;;;;;;3.45;1.30;;;;;;;13.97;83.00;96798.97;10435831;28;20057;-55
2022/04/06 14:06:38;;;;;;;2.97;1.35;;;;;;;14.13;82.78;96811.09;10453942;28;20066;-57
2022/04/06 14:11:43;;;;;;;3.80;1.40;;;;;;;14.17;79.24;96789.78;10454757;28;20155;-59
2022/04/06 14:16:46;;;;;;;2.60;1.20;;;;;;;14.09;81.62;96780.09;10455050;28;20045;-61
2022/04/06 14:21:51;;;;;;;2.30;1.30;;;;;;;14.35;79.02;96772.72;10450270;28;20049;-56
2022/04/06 14:26:55;;;;;;;2.28;1.15;;;;;;;14.44;76.90;96774.06;10450484;28;20045;-58
2022/04/06 14:31:58;;;;;;;2.53;1.08;;;;;;;14.35;84.90;96763.78;10437583;28;20509;-53
2022/04/06 14:37:04;;;;;;;2.67;1.20;;;;;;;14.33;77.84;96766.69;10455866;28;20541;-55
2022/04/06 14:42:08;;;;;;;3.35;1.00;;;;;;;14.70;72.37;96774.03;10457176;28;20045;-52
2022/04/06 14:47:11;;;;;;;1.85;1.10;;;;;;;14.51;76.15;96756.91;10441999;28;20939;-50
2022/04/06 14:52:16;;;;;;;1.95;1.20;;;;;;;14.83;65.53;96756.72;10442307;28;20040;-53
2022/04/06 14:57:19;;;;;;;3.90;1.30;;;;;;;14.62;64.34;96759.66;10457171;28;20068;-54
2022/04/06 15:02:24;;;;;;;4.90;1.13;;;;;;;14.46;65.60;96760.31;10456363;28;20167;-58
2022/04/06 15:07:33;;;;;;;2.45;1.10;;;;;;;14.15;68.11;96760.25;10441054;28;20056;-59
2022/04/06 15:12:37;;;;;;;2.50;1.15;;;;;;;14.18;74.75;96753.53;10452961;28;21365;-54
2022/04/06 15:17:41;;;;;;;2.10;1.08;;;;;;;14.38;70.07;96739.78;10439146;28;20194;-54
2022/04/06 15:22:45;;;;;;;2.28;1.08;;;;;;;14.31;65.55;96741.72;10457187;28;20051;-55
2022/04/06 15:27:49;;;;;;;3.50;1.02;;;;;;;14.26;64.18;96736.16;10456682;28;20063;-52
2022/04/06 15:32:54;;;;;;;3.28;1.10;;;;;;;14.20;67.18;96735.19;10457051;28;20124;-57
2022/04/06 15:38:00;;;;;;;2.30;1.13;;;;;;;13.76;66.99;96729.00;10456308;28;20049;-56
2022/04/06 15:43:04;;;;;;;1.65;0.98;;;;;;;13.60;74.28;96735.78;10454875;28;20181;-58
2022/04/06 15:48:10;;;;;;;2.25;1.10;;;;;;;13.49;75.12;96723.84;10454521;28;20056;-56
2022/04/06 15:53:16;;;;;;;2.78;1.15;;;;;;;13.36;81.51;96708.50;10455628;28;20063;-55
2022/04/06 15:58:20;;;;;;;2.53;1.20;;;;;;;13.31;78.05;96711.06;10456051;28;20071;-56
2022/04/06 16:03:25;;;;;;;2.15;1.10;;;;;;;13.40;78.36;96705.19;10457506;28;20569;-51
2022/04/06 16:08:34;;;;;;;1.80;0.95;;;;;;;13.44;75.23;96719.09;10455165;28;20052;-56
2022/04/06 16:13:41;;;;;;;2.22;1.00;;;;;;;14.03;86.11;96710.59;10452586;28;20036;-57
2022/04/06 16:18:50;;;;;;;1.77;1.00;;;;;;;14.10;86.00;96711.34;10452199;28;20064;-55
2022/04/06 16:23:57;;;;;;;2.30;1.17;;;;;;;13.83;78.55;96698.09;10452892;28;20075;-58
2022/04/06 16:29:02;;;;;;;4.22;1.10;;;;;;;13.64;72.73;96691.03;10453089;28;20185;-54
2022/04/06 16:34:14;;;;;;;2.67;1.17;;;;;;;13.44;78.02;96694.75;10450764;28;20076;-52
2022/04/06 16:39:22;;;;;;;2.72;1.13;;;;;;;13.27;86.67;96694.47;10453234;28;20634;-57
2022/04/06 16:44:27;;;;;;;1.83;0.90;;;;;;;13.12;85.09;96681.25;10455215;28;20076;-55
2022/04/06 16:55:20;;;;;;;2.25;1.10;;;;;;;12.87;85.96;96673.97;10451934;28;20047;-58
2022/04/06 17:00:27;;;;;;;2.38;1.10;;;;;;;12.75;86.84;96671.13;10434326;28;20044;-55
2022/04/06 17:05:33;;;;;;;2.78;1.20;;;;;;;12.56;96.01;96672.91;10438291;28;20048;-55
2022/04/06 17:10:45;;;;;;;2.15;1.00;;;;;;;12.43;93.83;96667.59;10452718;28;20179;-56
2022/04/06 17:15:51;;;;;;;2.10;1.08;;;;;;;12.27;96.38;96674.31;10391141;28;20084;-57
2022/04/06 17:20:57;;;;;;;2.17;1.00;;;;;;;12.18;100.00;96671.03;10450161;28;20615;-56
2022/04/06 17:26:06;;;;;;;2.67;1.00;;;;;;;12.00;100.00;96675.28;10450651;28;21410;-56
2022/04/06 17:31:12;;;;;;;1.38;0.90;;;;;;;11.94;100.00;96670.69;10430131;28;20072;-61
2022/04/06 17:36:41;;;;;;;2.60;1.10;;;;;;;11.66;100.00;96674.53;10437708;28;20040;-58
2022/04/06 17:41:51;;;;;;;2.88;0.98;;;;;;;11.47;100.00;96669.97;10451076;28;20061;-57
2022/04/06 17:46:58;;;;;;;3.92;1.10;;;;;;;11.34;100.00;96677.09;10438590;28;20044;-56
2022/04/06 17:52:06;;;;;;;1.77;1.00;;;;;;;11.08;100.00;96670.66;10451802;28;20052;-57
2022/04/06 17:57:15;;;;;;;2.53;1.10;;;;;;;10.95;100.00;96674.19;10452038;28;20445;-58
2022/04/06 18:02:23;;;;;;;1.98;1.00;;;;;;;10.86;100.00;96675.41;10449945;28;20053;-62
2022/04/06 18:07:39;;;;;;;2.65;1.10;;;;;;;10.66;100.00;96671.88;10453112;28;20063;-64
2022/04/06 18:18:05;;;;;;;2.30;1.00;;;;;;;10.55;100.00;96678.69;10444595;28;20060;-60
2022/04/06 18:23:08;;;;;;;2.42;1.00;;;;;;;10.54;100.00;96677.03;10458833;28;20060;-58
2022/04/06 18:28:13;;;;;;;3.33;1.10;;;;;;;10.50;100.00;96676.59;10455407;28;20048;-59
2022/04/06 18:33:17;;;;;;;2.90;1.08;;;;;;;10.40;100.00;96677.03;10435761;28;20552;-57
2022/04/06 18:38:20;;;;;;;2.80;1.08;;;;;;;10.26;100.00;96672.59;10454026;28;20049;-58
2022/04/06 18:43:27;;;;;;;2.53;0.90;;;;;;;10.24;100.00;96670.09;10454948;28;20128;-56
2022/04/06 18:48:32;;;;;;;3.15;1.05;;;;;;;10.27;100.00;96666.19;10462691;22;20080;-63
2022/04/06 18:53:36;;;;;;;3.25;1.00;;;;;;;10.13;100.00;96673.38;10397828;28;20051;-55
2022/04/06 18:58:41;;;;;;;2.40;1.10;;;;;;;10.07;100.00;96668.81;10408902;28;20182;-56
2022/04/06 19:03:44;;;;;;;3.05;1.13;;;;;;;10.01;100.00;96673.13;10408513;28;20740;-59
2022/04/06 19:08:49;;;;;;;2.88;1.02;;;;;;;10.11;100.00;96672.75;10406636;28;20424;-61
2022/04/06 19:13:58;;;;;;;3.55;1.10;;;;;;;10.13;100.00;96663.44;10405366;28;20049;-63
2022/04/06 19:19:01;;;;;;;2.47;1.08;;;;;;;10.21;100.00;96664.28;10406516;28;20045;-63
2022/04/06 19:24:07;;;;;;;4.07;1.10;;;;;;;10.27;100.00;96655.41;10407504;28;20049;-62
2022/04/06 19:29:15;;;;;;;2.30;0.95;;;;;;;10.31;100.00;96664.72;10405419;28;20127;-64
2022/04/06 19:34:19;;;;;;;2.15;1.00;;;;;;;10.30;100.00;96665.75;10384152;28;20053;-56
2022/04/06 19:39:24;;;;;;;2.05;0.85;;;;;;;10.28;100.00;96662.47;10400989;28;20099;-55
2022/04/06 19:44:29;;;;;;;1.55;0.80;;;;;;;10.22;100.00;96669.50;10401193;28;20185;-58
2022/04/06 19:49:33;;;;;;;1.98;0.90;;;;;;;10.10;100.00;96660.34;10397922;28;20536;-60
2022/04/06 19:54:37;;;;;;;2.55;0.95;;;;;;;10.03;100.00;96660.31;10382005;28;20052;-60
2022/04/06 19:59:41;;;;;;;2.28;0.90;;;;;;;9.97;100.00;96669.16;10400958;28;20576;-58
2022/04/06 20:04:44;;;;;;;2.17;0.63;;;;;;;9.89;100.00;96664.78;10407705;28;20461;-58
2022/04/06 20:09:47;;;;;;;1.63;0.70;;;;;;;9.89;100.00;96658.59;10405221;28;20052;-58
2022/04/06 20:14:52;;;;;;;1.92;0.60;;;;;;;9.84;100.00;96673.47;10405841;28;20527;-58
2022/04/06 20:19:56;;;;;;;1.63;0.73;;;;;;;9.70;100.00;96661.81;10406027;28;20045;-55
2022/04/06 20:24:59;;;;;;;1.85;0.70;;;;;;;9.67;100.00;96664.09;10406090;28;20047;-55
2022/04/06 20:30:04;;;;;;;1.35;0.70;;;;;;;9.63;100.00;96650.22;10410399;28;20059;-59
2022/04/06 20:35:09;;;;;;;3.08;0.80;;;;;;;9.68;100.00;96653.13;10413392;28;20135;-59
2022/04/06 20:40:12;;;;;;;1.48;0.57;;;;;;;9.52;100.00;96643.53;10413439;28;20995;-59
2022/04/06 20:45:16;;;;;;;1.17;0.60;;;;;;;9.53;100.00;96639.81;10414222;28;20065;-59
2022/04/06 20:50:20;;;;;;;1.15;0.50;;;;;;;9.53;100.00;96645.19;10408271;28;20484;-56
2022/04/06 20:55:23;;;;;;;1.42;0.60;;;;;;;9.55;100.00;96629.69;10404234;28;20124;-59
2022/04/06 21:00:27;;;;;;;1.20;0.70;;;;;;;9.47;100.00;96624.47;10402952;28;20657;-56
2022/04/06 21:05:31;;;;;;;1.08;0.70;;;;;;;9.39;100.00;96617.41;10385824;28;20044;-57
2022/04/06 21:10:34;;;;;;;2.30;0.73;;;;;;;9.36;100.00;96606.22;10403509;28;20060;-58
2022/04/06 21:15:39;;;;;;;1.38;0.70;;;;;;;9.30;100.00;96609.72;10392530;28;20048;-56
2022/04/06 21:20:42;;;;;;;1.23;0.70;;;;;;;9.21;100.00;96609.88;10402558;28;20052;-56
2022/04/06 21:25:45;;;;;;;2.38;0.60;;;;;;;9.13;100.00;96604.63;10404102;28;20124;-55
2022/04/06 21:30:50;;;;;;;1.92;0.70;;;;;;;9.10;100.00;96600.50;10384107;28;20262;-56
2022/04/06 21:35:54;;;;;;;2.15;0.82;;;;;;;9.07;100.00;96587.44;10402575;28;20226;-55
2022/04/06 21:40:57;;;;;;;1.92;0.80;;;;;;;9.12;100.00;96584.16;10400299;28;20046;-57
2022/04/06 21:46:01;;;;;;;0.70;0.65;;;;;;;9.12;100.00;96573.41;10385713;28;20072;-54
2022/04/06 21:51:04;;;;;;;1.13;0.82;;;;;;;9.12;100.00;96573.41;10401521;28;20053;-57
2022/04/06 21:56:09;;;;;;;1.20;0.75;;;;;;;9.12;100.00;96569.91;10403789;28;20045;-58
2022/04/06 22:01:14;;;;;;;1.60;0.70;;;;;;;9.16;100.00;96553.22;10403422;28;20047;-56
2022/04/06 22:06:17;;;;;;;1.50;0.75;;;;;;;9.24;100.00;96539.59;10401176;28;20055;-57
2022/04/06 22:11:20;;;;;;;2.15;0.93;;;;;;;9.29;100.00;96565.88;10402463;28;20057;-56
2022/04/06 22:16:24;;;;;;;1.20;0.80;;;;;;;9.35;100.00;96532.03;10402268;28;21400;-58
2022/04/06 22:21:27;;;;;;;2.20;1.00;;;;;;;9.27;100.00;96548.28;10390433;28;20461;-55
2022/04/06 22:26:31;;;;;;;2.00;0.80;;;;;;;9.22;100.00;96551.59;10384380;28;20142;-53
2022/04/06 22:31:35;;;;;;;1.33;0.98;;;;;;;9.13;100.00;96548.22;10402478;28;20048;-56
2022/04/06 22:36:38;;;;;;;1.83;1.00;;;;;;;9.07;100.00;96544.47;10401384;28;20064;-54
2022/04/06 22:41:41;;;;;;;1.67;0.90;;;;;;;9.04;100.00;96544.03;10401545;28;20125;-54
2022/04/06 22:46:47;;;;;;;2.08;1.02;;;;;;;8.94;100.00;96539.88;10388421;28;20061;-54
2022/04/06 22:51:50;;;;;;;1.65;0.90;;;;;;;8.91;100.00;96534.88;10387967;28;20110;-58
2022/04/06 22:56:53;;;;;;;2.22;0.73;;;;;;;8.86;100.00;96537.34;10410216;28;20048;-57
2022/04/06 23:01:58;;;;;;;2.33;1.00;;;;;;;8.93;100.00;96523.97;10408897;28;20052;-55
2022/04/06 23:07:01;;;;;;;2.20;1.00;;;;;;;9.03;100.00;96520.91;10408767;28;20078;-57
2022/04/06 23:12:07;;;;;;;1.90;0.88;;;;;;;9.02;100.00;96513.88;10408752;28;20691;-59
2022/04/06 23:17:11;;;;;;;1.70;0.80;;;;;;;9.06;100.00;96505.22;10407588;28;20131;-59
2022/04/06 23:22:15;;;;;;;1.75;0.90;;;;;;;9.14;100.00;96487.28;10408022;28;20049;-56
2022/04/06 23:27:18;;;;;;;1.63;0.90;;;;;;;9.15;100.00;96478.19;10408986;28;20046;-53
2022/04/06 23:32:23;;;;;;;1.33;0.80;;;;;;;9.09;100.00;96483.31;10406912;28;20534;-56
2022/04/06 23:37:26;;;;;;;1.55;0.90;;;;;;;9.04;100.00;96488.50;10407902;28;20061;-55
2022/04/06 23:42:29;;;;;;;1.30;0.70;;;;;;;9.03;100.00;96491.34;10407088;28;20130;-54
2022/04/06 23:47:34;;;;;;;1.83;1.02;;;;;;;8.89;100.00;96499.34;10406125;28;22322;-55
2022/04/06 23:52:37;;;;;;;2.13;0.80;;;;;;;8.78;100.00;96481.94;10405874;28;20124;-56